Řízení letového provozu České republiky
Letiste: LKKV Aktualizace: 09.12.2016 11:32:08  UTC
 METAR LKKV 09.12. 11:30 ...
METAR LKKV 091130Z 26008KT 230V300 5000 BR OVC006 02/02 Q1027 R29/290095 RMK REG QNH 1023=
 TAF LKKV 09.12. 11:00 ...
TAF LKKV 091100Z 0912/1018 27010KT 9999 SCT005 BKN020      TEMPO 0912/0918 4000 BR BKN005      BECMG 0918/0920 VRB02KT CAVOK      TEMPO 1000/1007 4000 BR SCT002      PROB30 TEMPO 1002/1007 2000 BR OVC002      BECMG 1007/1009 27008KT=